createdAt,value
2023-04-25T00:00:22.280Z,9.78
2023-04-25T00:03:26.806Z,9.74
2023-04-25T00:06:31.234Z,9.78
2023-04-25T00:09:34.235Z,9.70
2023-04-25T00:12:38.692Z,9.74
2023-04-25T00:15:42.963Z,9.75
2023-04-25T00:18:47.622Z,9.78
2023-04-25T00:21:50.353Z,9.73
2023-04-25T00:24:54.746Z,9.75
2023-04-25T00:27:57.686Z,9.65
2023-04-25T00:31:00.901Z,9.59
2023-04-25T00:34:03.848Z,9.48
2023-04-25T00:37:07.401Z,9.50
2023-04-25T00:40:13.154Z,9.45
2023-04-25T00:43:15.816Z,9.41
2023-04-25T00:46:21.243Z,9.48
2023-04-25T00:49:23.958Z,9.41
2023-04-25T00:52:26.678Z,9.44
2023-04-25T00:55:29.578Z,9.36
2023-04-25T00:58:32.541Z,9.38
2023-04-25T01:01:35.386Z,9.31
2023-04-25T01:04:38.213Z,9.38
2023-04-25T01:07:42.169Z,9.38
2023-04-25T01:10:45.059Z,9.36
2023-04-25T01:13:47.893Z,9.30
2023-04-25T01:16:50.796Z,9.42
2023-04-25T01:19:53.669Z,9.41
2023-04-25T01:22:58.772Z,9.32
2023-04-25T01:26:02.107Z,9.28
2023-04-25T01:29:06.229Z,9.33
2023-04-25T01:32:09.347Z,9.24
2023-04-25T01:35:13.050Z,9.13
2023-04-25T01:38:16.090Z,9.06
2023-04-25T01:41:19.286Z,8.94
2023-04-25T01:44:22.409Z,9.00
2023-04-25T01:47:25.222Z,9.00
2023-04-25T01:50:27.976Z,8.96
2023-04-25T01:53:30.992Z,8.99
2023-04-25T01:56:34.696Z,8.90
2023-04-25T01:59:38.901Z,8.85
2023-04-25T02:03:01.921Z,8.90
2023-04-25T02:06:08.723Z,8.82
2023-04-25T02:09:17.126Z,8.95
2023-04-25T02:12:24.967Z,8.90
2023-04-25T02:15:30.840Z,8.89
2023-04-25T02:18:40.400Z,8.78
2023-04-25T02:21:43.320Z,8.75
2023-04-25T02:24:47.744Z,8.74
2023-04-25T02:27:51.882Z,8.71
2023-04-25T02:30:54.519Z,8.79
2023-04-25T02:33:57.400Z,8.87
2023-04-25T02:37:00.225Z,8.80
2023-04-25T02:40:04.313Z,8.73
2023-04-25T02:43:08.686Z,8.79
2023-04-25T02:46:11.542Z,8.84
2023-04-25T02:49:16.210Z,8.90
2023-04-25T02:52:19.064Z,8.95
2023-04-25T02:55:29.133Z,8.86
2023-04-25T02:58:33.531Z,8.87
2023-04-25T03:01:36.228Z,8.91
2023-04-25T03:04:39.238Z,8.87
2023-04-25T03:07:42.157Z,8.73
2023-04-25T03:10:47.284Z,8.72
2023-04-25T03:13:54.269Z,8.67
2023-04-25T03:16:59.506Z,8.61
2023-04-25T03:20:02.315Z,8.55
2023-04-25T03:23:05.652Z,8.55
2023-04-25T03:26:08.365Z,8.44
2023-04-25T03:29:11.255Z,8.38
2023-04-25T03:32:15.504Z,8.35
2023-04-25T03:35:18.614Z,8.33
2023-04-25T03:38:21.494Z,8.34
2023-04-25T03:41:24.408Z,8.35
2023-04-25T03:44:31.464Z,8.34
2023-04-25T03:47:35.751Z,8.25
2023-04-25T03:50:38.811Z,8.30
2023-04-25T03:53:42.059Z,8.22
2023-04-25T03:57:14.391Z,8.19
2023-04-25T04:00:18.969Z,8.16
2023-04-25T04:03:22.131Z,8.24
2023-04-25T04:06:26.884Z,8.24
2023-04-25T04:09:38.071Z,8.21
2023-04-25T04:12:45.512Z,8.17
2023-04-25T04:15:48.302Z,8.14
2023-04-25T04:18:51.954Z,8.21
2023-04-25T04:21:54.698Z,8.32
2023-04-25T04:24:58.177Z,8.28
2023-04-25T04:28:19.728Z,8.24
2023-04-25T04:31:36.249Z,8.23
2023-04-25T04:34:40.985Z,8.28
2023-04-25T04:37:45.226Z,8.20
2023-04-25T04:40:49.578Z,8.20
2023-04-25T04:44:15.452Z,8.19
2023-04-25T04:47:24.998Z,8.15
2023-04-25T04:50:40.199Z,8.27
2023-04-25T04:53:59.525Z,8.12
2023-04-25T04:57:25.173Z,8.17
2023-04-25T05:00:49.031Z,8.17
2023-04-25T05:04:21.384Z,8.22
2023-04-25T05:07:42.921Z,8.18
2023-04-25T05:11:22.374Z,8.11
2023-04-25T05:15:00.605Z,8.26
2023-04-25T05:18:06.335Z,8.36
2023-04-25T05:21:29.673Z,8.33
2023-04-25T05:24:56.342Z,8.33
2023-04-25T05:28:07.363Z,8.42
2023-04-25T05:31:28.809Z,8.40
2023-04-25T05:34:38.119Z,8.41
2023-04-25T05:37:43.988Z,8.36
2023-04-25T05:40:49.231Z,8.35
2023-04-25T05:44:14.575Z,8.27
2023-04-25T05:47:37.529Z,8.14
2023-04-25T05:50:45.585Z,8.20
2023-04-25T05:54:07.224Z,8.18
2023-04-25T05:57:21.281Z,8.21
2023-04-25T06:00:24.997Z,8.27
2023-04-25T06:03:28.232Z,8.19
2023-04-25T06:06:34.200Z,8.19
2023-04-25T06:09:37.079Z,8.31
2023-04-25T06:12:39.904Z,8.35
2023-04-25T06:15:42.891Z,8.41
2023-04-25T06:18:45.894Z,8.39
2023-04-25T06:21:49.457Z,8.41
2023-04-25T06:24:52.244Z,8.46
2023-04-25T06:27:55.079Z,8.36
2023-04-25T06:30:58.218Z,8.43
2023-04-25T06:34:01.571Z,8.44
2023-04-25T06:37:06.999Z,8.47
2023-04-25T06:40:10.320Z,8.42
2023-04-25T06:43:13.208Z,8.49
2023-04-25T06:46:31.215Z,8.53
2023-04-25T06:49:35.521Z,8.57
2023-04-25T06:52:39.290Z,8.74
2023-04-25T06:55:42.495Z,8.62
2023-04-25T06:58:56.951Z,8.72
2023-04-25T07:02:20.087Z,8.73
2023-04-25T07:05:23.228Z,8.96
2023-04-25T07:08:26.533Z,8.66
2023-04-25T07:11:30.015Z,8.62
2023-04-25T07:14:33.045Z,8.74
2023-04-25T07:17:36.311Z,8.72
2023-04-25T07:20:39.424Z,8.92
2023-04-25T07:23:43.173Z,8.84
2023-04-25T07:26:51.381Z,8.97
2023-04-25T07:30:11.587Z,8.98
2023-04-25T07:33:16.167Z,9.00
2023-04-25T07:36:19.160Z,8.99
2023-04-25T07:39:23.788Z,9.06
2023-04-25T07:42:27.105Z,9.16
2023-04-25T07:45:30.539Z,9.15
2023-04-25T07:48:35.991Z,8.70
2023-04-25T07:51:40.529Z,8.71
2023-04-25T07:54:47.092Z,8.88
2023-04-25T07:57:55.232Z,8.99
2023-04-25T08:00:58.252Z,9.02
2023-04-25T08:04:21.643Z,9.40
2023-04-25T08:07:29.648Z,9.54
2023-04-25T08:10:38.103Z,9.51
2023-04-25T08:13:41.239Z,9.58
2023-04-25T08:16:44.427Z,9.40
2023-04-25T08:19:47.761Z,9.42
2023-04-25T08:22:59.820Z,9.38
2023-04-25T08:26:18.078Z,9.47
2023-04-25T08:29:26.196Z,9.65
2023-04-25T08:32:30.759Z,9.73
2023-04-25T08:35:57.383Z,10.00
2023-04-25T08:39:01.713Z,10.06
2023-04-25T08:42:09.139Z,10.08
2023-04-25T08:45:12.865Z,10.36
2023-04-25T08:48:19.108Z,10.40
2023-04-25T08:51:26.412Z,10.31
2023-04-25T08:54:34.405Z,10.54
2023-04-25T08:57:40.324Z,10.26
2023-04-25T09:00:44.756Z,10.73
2023-04-25T09:03:48.876Z,10.69
2023-04-25T09:06:52.385Z,10.30
2023-04-25T09:09:55.637Z,10.38
2023-04-25T09:13:06.176Z,10.22
2023-04-25T09:16:18.900Z,10.14
2023-04-25T09:19:45.494Z,10.21
2023-04-25T09:23:06.837Z,10.35
2023-04-25T09:26:17.436Z,10.03
2023-04-25T09:29:31.011Z,10.07
2023-04-25T09:32:34.361Z,9.88
2023-04-25T09:35:43.929Z,9.92
2023-04-25T09:38:54.468Z,10.22
2023-04-25T09:42:05.350Z,10.22
2023-04-25T09:45:08.776Z,10.75
2023-04-25T09:48:21.869Z,10.64
2023-04-25T09:51:29.073Z,10.49
2023-04-25T09:54:36.985Z,10.87
2023-04-25T09:58:05.560Z,11.27
2023-04-25T10:01:10.348Z,11.46
2023-04-25T10:04:31.164Z,11.38
2023-04-25T10:07:40.261Z,11.03
2023-04-25T10:10:48.242Z,11.53
2023-04-25T10:13:52.373Z,11.49
2023-04-25T10:16:56.138Z,11.92
2023-04-25T10:19:58.951Z,11.78
2023-04-25T10:23:18.342Z,12.26
2023-04-25T10:26:21.474Z,12.37
2023-04-25T10:29:27.859Z,12.69
2023-04-25T10:32:32.583Z,13.22
2023-04-25T10:35:36.569Z,13.23
2023-04-25T10:38:39.787Z,12.50
2023-04-25T10:41:53.878Z,12.84
2023-04-25T10:45:09.506Z,12.83
2023-04-25T10:48:31.322Z,12.63
2023-04-25T10:51:54.305Z,12.89
2023-04-25T10:54:58.989Z,13.20
2023-04-25T10:58:02.541Z,13.15
2023-04-25T11:01:05.340Z,13.31
2023-04-25T11:04:08.584Z,13.28
2023-04-25T11:07:15.914Z,13.38
2023-04-25T11:10:21.996Z,13.56
2023-04-25T11:13:32.383Z,13.49
2023-04-25T11:16:35.256Z,13.53
2023-04-25T11:19:38.209Z,13.96
2023-04-25T11:22:44.051Z,14.16
2023-04-25T11:25:46.785Z,14.20
2023-04-25T11:28:54.970Z,14.06
2023-04-25T11:32:02.642Z,14.40
2023-04-25T11:35:07.421Z,14.27
2023-04-25T11:38:13.190Z,14.51
2023-04-25T11:41:18.323Z,14.05
2023-04-25T11:44:21.326Z,14.08
2023-04-25T11:47:32.682Z,14.50
2023-04-25T11:50:35.592Z,14.65
2023-04-25T11:53:42.608Z,14.28
2023-04-25T11:56:46.175Z,13.65
2023-04-25T11:59:48.871Z,13.30
2023-04-25T12:02:56.552Z,13.26
2023-04-25T12:06:05.583Z,13.88
2023-04-25T12:09:14.729Z,14.73
2023-04-25T12:12:17.863Z,14.89
2023-04-25T12:15:25.741Z,14.88
2023-04-25T12:18:29.213Z,14.02
2023-04-25T12:21:35.362Z,14.36
2023-04-25T12:24:41.776Z,14.61
2023-04-25T12:27:45.364Z,15.41
2023-04-25T12:31:05.871Z,15.91
2023-04-25T12:34:09.434Z,15.81
2023-04-25T12:37:12.841Z,16.21
2023-04-25T12:40:15.746Z,16.08
2023-04-25T12:43:19.357Z,16.32
2023-04-25T12:46:22.204Z,15.36
2023-04-25T12:49:24.985Z,14.66
2023-04-25T12:52:28.200Z,14.56
2023-04-25T12:55:31.042Z,15.41
2023-04-25T12:58:36.932Z,15.45
2023-04-25T13:01:39.985Z,15.46
2023-04-25T13:04:43.174Z,15.31
2023-04-25T13:07:46.903Z,15.15
2023-04-25T13:10:49.846Z,14.73
2023-04-25T13:13:53.274Z,14.62
2023-04-25T13:16:56.558Z,14.89
2023-04-25T13:19:59.587Z,14.81
2023-04-25T13:23:02.819Z,14.57
2023-04-25T13:26:09.158Z,14.33
2023-04-25T13:29:12.071Z,14.25
2023-04-25T13:32:14.910Z,14.44
2023-04-25T13:35:18.564Z,14.54
2023-04-25T13:38:22.994Z,14.73
2023-04-25T13:41:25.981Z,15.32
2023-04-25T13:44:28.976Z,15.37
2023-04-25T13:47:32.448Z,15.36
2023-04-25T13:50:35.186Z,15.11
2023-04-25T13:53:38.358Z,15.01
2023-04-25T13:56:43.670Z,14.97
2023-04-25T13:59:49.511Z,14.40
2023-04-25T14:02:53.420Z,14.56
2023-04-25T14:05:56.620Z,14.22
2023-04-25T14:09:02.252Z,13.82
2023-04-25T14:12:05.187Z,13.47
2023-04-25T14:15:08.619Z,13.59
2023-04-25T14:18:11.483Z,13.64
2023-04-25T14:21:14.465Z,13.71
2023-04-25T14:24:17.329Z,13.95
2023-04-25T14:27:20.248Z,13.73
2023-04-25T14:30:23.389Z,13.90
2023-04-25T14:33:26.441Z,14.19
2023-04-25T14:36:33.204Z,14.11
2023-04-25T14:39:36.313Z,14.28
2023-04-25T14:42:39.166Z,14.56
2023-04-25T14:45:42.416Z,14.81
2023-04-25T14:48:45.386Z,15.27
2023-04-25T14:51:50.155Z,15.07
2023-04-25T14:54:54.454Z,14.91
2023-04-25T14:57:57.746Z,14.97
2023-04-25T15:01:01.418Z,14.54
2023-04-25T15:04:04.957Z,14.61
2023-04-25T15:07:07.863Z,14.74
2023-04-25T15:10:17.914Z,14.48
2023-04-25T15:13:20.838Z,14.42
2023-04-25T15:16:23.723Z,14.67
2023-04-25T15:19:26.515Z,14.71
2023-04-25T15:22:29.562Z,14.63
2023-04-25T15:25:32.565Z,14.76
2023-04-25T15:28:35.327Z,14.80
2023-04-25T15:31:38.219Z,14.66
2023-04-25T15:34:41.129Z,14.45
2023-04-25T15:37:44.141Z,14.40
2023-04-25T15:40:46.948Z,14.39
2023-04-25T15:43:50.110Z,14.32
2023-04-25T15:46:55.077Z,14.29
2023-04-25T15:49:58.293Z,14.69
2023-04-25T15:53:01.170Z,14.36
2023-04-25T15:56:04.965Z,14.13
2023-04-25T15:59:08.280Z,14.57
2023-04-25T16:02:11.115Z,14.38
2023-04-25T16:05:15.869Z,13.87
2023-04-25T16:08:18.859Z,13.70
2023-04-25T16:11:22.237Z,13.49
2023-04-25T16:14:25.246Z,13.23
2023-04-25T16:17:30.934Z,13.19
2023-04-25T16:20:33.837Z,12.88
2023-04-25T16:23:36.844Z,12.93
2023-04-25T16:26:41.185Z,12.69
2023-04-25T16:29:44.140Z,12.34
2023-04-25T16:32:47.155Z,12.24
2023-04-25T16:35:51.250Z,11.79
2023-04-25T16:38:54.367Z,11.41
2023-04-25T16:41:57.532Z,11.17
2023-04-25T16:45:01.104Z,10.90
2023-04-25T16:48:04.076Z,10.84
2023-04-25T16:51:06.834Z,11.06
2023-04-25T16:54:09.641Z,11.36
2023-04-25T16:57:14.569Z,11.52
2023-04-25T17:00:20.909Z,11.64
2023-04-25T17:03:24.246Z,11.48
2023-04-25T17:06:27.501Z,11.39
2023-04-25T17:09:31.022Z,11.34
2023-04-25T17:12:34.082Z,11.25
2023-04-25T17:15:37.064Z,11.10
2023-04-25T17:18:39.812Z,10.96
2023-04-25T17:21:43.026Z,10.71
2023-04-25T17:24:46.189Z,10.51
2023-04-25T17:27:49.233Z,10.41
2023-04-25T17:30:52.140Z,10.00
2023-04-25T17:33:54.920Z,9.82
2023-04-25T17:36:58.014Z,9.83
2023-04-25T17:40:01.205Z,9.74
2023-04-25T17:43:03.964Z,9.54
2023-04-25T17:46:07.089Z,9.44
2023-04-25T17:49:10.152Z,9.56
2023-04-25T17:52:13.061Z,9.58
2023-04-25T17:55:16.120Z,9.50
2023-04-25T17:58:19.154Z,9.47
2023-04-25T18:01:22.215Z,9.55
2023-04-25T18:04:25.432Z,9.58
2023-04-25T18:07:28.251Z,9.50
2023-04-25T18:10:31.608Z,9.51
2023-04-25T18:13:34.408Z,9.43
2023-04-25T18:16:37.316Z,9.49
2023-04-25T18:19:42.741Z,9.35
2023-04-25T18:22:46.708Z,9.38
2023-04-25T18:25:52.409Z,9.33
2023-04-25T18:28:55.277Z,9.27
2023-04-25T18:32:00.814Z,9.14
2023-04-25T18:35:04.549Z,9.04
2023-04-25T18:38:07.901Z,8.94
2023-04-25T18:41:33.912Z,8.84
2023-04-25T18:44:36.905Z,8.79
2023-04-25T18:47:40.120Z,8.72
2023-04-25T18:50:44.582Z,8.73
2023-04-25T18:53:47.322Z,8.62
2023-04-25T18:56:50.123Z,8.70
2023-04-25T18:59:52.902Z,8.60
2023-04-25T19:02:58.357Z,8.64
2023-04-25T19:06:01.733Z,8.57
2023-04-25T19:09:04.701Z,8.61
2023-04-25T19:12:07.820Z,8.65
2023-04-25T19:15:13.056Z,8.53
2023-04-25T19:18:16.126Z,8.48
2023-04-25T19:21:19.121Z,8.50
2023-04-25T19:24:21.918Z,8.42
2023-04-25T19:27:26.969Z,8.37
2023-04-25T19:30:30.405Z,8.39
2023-04-25T19:33:33.454Z,8.37
2023-04-25T19:36:38.904Z,8.37
2023-04-25T19:39:41.952Z,8.29
2023-04-25T19:42:45.768Z,8.19
2023-04-25T19:45:48.791Z,8.19
2023-04-25T19:48:52.256Z,8.24
2023-04-25T19:51:55.496Z,8.22
2023-04-25T19:55:02.690Z,8.24
2023-04-25T19:58:07.218Z,8.15
2023-04-25T20:01:10.894Z,8.24
2023-04-25T20:04:13.893Z,8.23
2023-04-25T20:07:16.864Z,8.17
2023-04-25T20:10:20.309Z,8.16
2023-04-25T20:13:23.172Z,8.25
2023-04-25T20:16:26.488Z,8.17
2023-04-25T20:19:29.498Z,8.19
2023-04-25T20:22:37.420Z,8.20
2023-04-25T20:25:40.250Z,8.15
2023-04-25T20:28:44.920Z,8.15
2023-04-25T20:31:50.173Z,8.14
2023-04-25T20:34:53.121Z,8.04
2023-04-25T20:37:56.565Z,8.14
2023-04-25T20:40:59.949Z,8.10
2023-04-25T20:44:03.462Z,8.12
2023-04-25T20:47:08.869Z,8.13
2023-04-25T20:50:12.734Z,8.15
2023-04-25T20:53:16.047Z,8.20
2023-04-25T20:56:19.376Z,8.09
2023-04-25T20:59:22.479Z,8.14
2023-04-25T21:02:25.359Z,7.99
2023-04-25T21:05:28.321Z,8.02
2023-04-25T21:08:31.098Z,7.94
2023-04-25T21:11:34.131Z,8.06
2023-04-25T21:14:37.087Z,8.05
2023-04-25T21:17:40.598Z,7.96
2023-04-25T21:20:43.485Z,7.92
2023-04-25T21:23:46.440Z,7.84
2023-04-25T21:26:49.214Z,7.84
2023-04-25T21:29:52.169Z,7.83
2023-04-25T21:32:55.050Z,7.72
2023-04-25T21:35:58.031Z,7.77
2023-04-25T21:39:00.802Z,7.95
2023-04-25T21:42:06.768Z,7.81
2023-04-25T21:45:10.570Z,7.81
2023-04-25T21:48:13.794Z,7.66
2023-04-25T21:51:18.117Z,7.62
2023-04-25T21:54:21.089Z,7.61
2023-04-25T21:57:23.838Z,7.51
2023-04-25T22:00:28.078Z,7.52
2023-04-25T22:03:32.287Z,7.43
2023-04-25T22:06:35.074Z,7.48
2023-04-25T22:09:47.371Z,7.38
2023-04-25T22:12:56.987Z,7.45
2023-04-25T22:16:00.323Z,7.45
2023-04-25T22:19:03.187Z,7.43
2023-04-25T22:22:06.545Z,7.47
2023-04-25T22:25:10.331Z,7.39
2023-04-25T22:28:13.574Z,7.41
2023-04-25T22:31:16.799Z,7.36
2023-04-25T22:34:19.765Z,7.46
2023-04-25T22:37:22.575Z,7.43
2023-04-25T22:40:25.305Z,7.46
2023-04-25T22:43:29.586Z,7.53
2023-04-25T22:46:33.018Z,7.43
2023-04-25T22:49:36.100Z,7.44
2023-04-25T22:52:38.778Z,7.42
2023-04-25T22:55:42.024Z,7.43
2023-04-25T22:58:45.400Z,7.40
2023-04-25T23:01:50.218Z,7.40
2023-04-25T23:04:53.520Z,7.36
2023-04-25T23:07:56.543Z,7.30
2023-04-25T23:10:59.472Z,7.22
2023-04-25T23:14:03.060Z,7.28
2023-04-25T23:17:08.183Z,7.22
2023-04-25T23:20:12.299Z,7.23
2023-04-25T23:23:15.334Z,7.24
2023-04-25T23:26:18.386Z,7.23
2023-04-25T23:29:23.372Z,7.23
2023-04-25T23:32:26.850Z,7.28
2023-04-25T23:35:35.523Z,7.18
2023-04-25T23:38:38.386Z,7.24
2023-04-25T23:41:41.195Z,7.23
2023-04-25T23:44:44.150Z,7.21
2023-04-25T23:47:47.082Z,7.23
2023-04-25T23:50:50.024Z,7.26
2023-04-25T23:53:52.776Z,7.20
2023-04-25T23:56:55.381Z,7.22
2023-04-25T23:59:58.332Z,7.15
